createdAt,value
2022-08-31T00:00:15.293Z,7.07
2022-08-31T00:03:00.569Z,9.50
2022-08-31T00:05:28.307Z,6.45
2022-08-31T00:07:55.740Z,7.38
2022-08-31T00:10:32.901Z,5.47
2022-08-31T00:13:07.078Z,6.05
2022-08-31T00:15:35.112Z,6.82
2022-08-31T00:18:02.499Z,6.43
2022-08-31T00:20:33.416Z,5.50
2022-08-31T00:23:06.529Z,7.15
2022-08-31T00:25:34.761Z,9.18
2022-08-31T00:28:02.017Z,7.00
2022-08-31T00:30:29.127Z,7.32
2022-08-31T00:32:58.202Z,6.38
2022-08-31T00:35:26.977Z,5.45
2022-08-31T00:37:53.945Z,5.15
2022-08-31T00:40:21.470Z,6.90
2022-08-31T00:42:48.420Z,4.07
2022-08-31T00:45:15.589Z,6.35
2022-08-31T00:47:42.998Z,7.00
2022-08-31T00:50:12.788Z,5.55
2022-08-31T00:52:43.888Z,7.13
2022-08-31T00:55:35.415Z,9.18
2022-08-31T00:58:06.512Z,6.35
2022-08-31T01:00:33.521Z,4.18
2022-08-31T01:03:02.147Z,4.25
2022-08-31T01:05:31.110Z,5.13
2022-08-31T01:08:00.105Z,6.95
2022-08-31T01:10:35.109Z,7.22
2022-08-31T01:13:02.509Z,6.65
2022-08-31T01:15:30.810Z,6.22
2022-08-31T01:18:01.191Z,6.20
2022-08-31T01:20:52.420Z,6.85
2022-08-31T01:23:29.119Z,6.47
2022-08-31T01:25:57.746Z,8.40
2022-08-31T01:28:25.338Z,4.85
2022-08-31T01:31:03.566Z,5.75
2022-08-31T01:33:30.620Z,7.22
2022-08-31T01:35:58.980Z,4.78
2022-08-31T01:38:26.687Z,4.20
2022-08-31T01:40:57.244Z,5.15
2022-08-31T01:43:25.554Z,4.93
2022-08-31T01:45:52.578Z,6.00
2022-08-31T01:48:19.944Z,6.50
2022-08-31T01:50:47.563Z,5.13
2022-08-31T01:53:15.018Z,5.38
2022-08-31T01:55:41.891Z,5.20
2022-08-31T01:58:09.336Z,10.30
2022-08-31T02:00:36.580Z,4.68
2022-08-31T02:03:05.861Z,5.53
2022-08-31T02:05:32.662Z,6.90
2022-08-31T02:08:02.097Z,6.50
2022-08-31T02:10:30.097Z,5.63
2022-08-31T02:12:57.381Z,4.05
2022-08-31T02:15:24.157Z,7.07
2022-08-31T02:17:52.845Z,5.20
2022-08-31T02:20:19.943Z,6.57
2022-08-31T02:22:48.694Z,6.05
2022-08-31T02:25:17.620Z,6.95
2022-08-31T02:27:44.628Z,6.57
2022-08-31T02:30:15.237Z,10.00
2022-08-31T02:32:42.335Z,5.88
2022-08-31T02:35:09.921Z,5.30
2022-08-31T02:37:37.206Z,6.15
2022-08-31T02:40:09.016Z,5.82
2022-08-31T02:42:39.418Z,7.03
2022-08-31T02:45:20.556Z,5.72
2022-08-31T02:47:47.363Z,7.63
2022-08-31T02:50:14.229Z,4.93
2022-08-31T02:52:40.970Z,7.22
2022-08-31T02:55:08.723Z,6.53
2022-08-31T02:57:35.524Z,6.35
2022-08-31T03:00:02.488Z,7.53
2022-08-31T03:02:31.929Z,5.78
2022-08-31T03:05:01.711Z,5.72
2022-08-31T03:07:28.669Z,8.52
2022-08-31T03:09:55.541Z,7.22
2022-08-31T03:12:22.361Z,5.40
2022-08-31T03:14:49.093Z,7.25
2022-08-31T03:17:15.885Z,5.63
2022-08-31T03:19:42.645Z,6.68
2022-08-31T03:22:09.487Z,8.00
2022-08-31T03:24:36.410Z,7.32
2022-08-31T03:27:03.275Z,6.38
2022-08-31T03:29:30.023Z,7.00
2022-08-31T03:31:56.869Z,6.82
2022-08-31T03:34:23.715Z,6.00
2022-08-31T03:36:50.548Z,7.35
2022-08-31T03:39:17.288Z,6.30
2022-08-31T03:41:44.140Z,7.25
2022-08-31T03:44:10.892Z,7.82
2022-08-31T03:46:37.940Z,6.13
2022-08-31T03:49:06.381Z,8.85
2022-08-31T03:51:33.184Z,5.28
2022-08-31T03:53:59.952Z,6.70
2022-08-31T03:56:26.725Z,6.70
2022-08-31T03:58:53.998Z,6.50
2022-08-31T04:01:20.840Z,7.22
2022-08-31T04:03:47.635Z,7.05
2022-08-31T04:06:14.455Z,6.63
2022-08-31T04:08:41.347Z,6.65
2022-08-31T04:11:15.615Z,7.35
2022-08-31T04:13:42.987Z,6.90
2022-08-31T04:16:12.422Z,8.70
2022-08-31T04:18:41.457Z,5.72
2022-08-31T04:21:23.057Z,9.48
2022-08-31T04:23:51.137Z,6.95
2022-08-31T04:26:22.723Z,6.97
2022-08-31T04:28:50.044Z,7.63
2022-08-31T04:31:17.773Z,6.93
2022-08-31T04:33:44.961Z,7.85
2022-08-31T04:36:14.586Z,7.05
2022-08-31T04:38:47.138Z,8.23
2022-08-31T04:41:18.019Z,8.20
2022-08-31T04:43:48.084Z,7.78
2022-08-31T04:46:15.622Z,9.27
2022-08-31T04:48:42.593Z,6.95
2022-08-31T04:51:13.414Z,7.85
2022-08-31T04:53:41.456Z,7.65
2022-08-31T04:56:16.601Z,8.25
2022-08-31T04:58:49.486Z,9.95
2022-08-31T05:01:19.860Z,13.77
2022-08-31T05:03:51.217Z,9.90
2022-08-31T05:06:18.708Z,10.23
2022-08-31T05:08:45.535Z,13.88
2022-08-31T05:11:19.034Z,9.95
2022-08-31T05:13:49.099Z,11.02
2022-08-31T05:16:16.951Z,12.75
2022-08-31T05:18:48.728Z,9.07
2022-08-31T05:21:20.612Z,10.82
2022-08-31T05:23:48.827Z,17.30
2022-08-31T05:26:26.027Z,10.88
2022-08-31T05:28:54.321Z,10.90
2022-08-31T05:31:21.878Z,10.43
2022-08-31T05:33:49.247Z,11.05
2022-08-31T05:36:16.520Z,14.90
2022-08-31T05:38:44.168Z,13.43
2022-08-31T05:41:11.559Z,9.63
2022-08-31T05:43:39.570Z,16.33
2022-08-31T05:46:10.398Z,10.48
2022-08-31T05:48:38.141Z,11.82
2022-08-31T05:51:07.869Z,11.88
2022-08-31T05:53:38.642Z,8.93
2022-08-31T05:56:10.657Z,14.65
2022-08-31T05:58:39.489Z,11.85
2022-08-31T06:01:17.420Z,12.63
2022-08-31T06:03:45.175Z,14.98
2022-08-31T06:06:12.976Z,14.63
2022-08-31T06:08:40.781Z,13.88
2022-08-31T06:11:13.719Z,11.98
2022-08-31T06:13:41.287Z,12.23
2022-08-31T06:16:09.953Z,13.25
2022-08-31T06:18:50.808Z,11.52
2022-08-31T06:21:21.179Z,10.75
2022-08-31T06:23:49.903Z,18.13
2022-08-31T06:26:18.903Z,14.43
2022-08-31T06:28:48.181Z,16.00
2022-08-31T06:31:23.790Z,17.85
2022-08-31T06:33:52.090Z,11.80
2022-08-31T06:36:21.499Z,15.50
2022-08-31T06:38:48.567Z,15.88
2022-08-31T06:41:19.861Z,12.60
2022-08-31T06:43:47.849Z,10.20
2022-08-31T06:46:15.455Z,10.85
2022-08-31T06:48:42.728Z,16.98
2022-08-31T06:51:11.338Z,17.27
2022-08-31T06:53:42.917Z,11.25
2022-08-31T06:56:16.510Z,9.73
2022-08-31T06:58:53.510Z,9.90
2022-08-31T07:01:35.403Z,12.97
2022-08-31T07:04:05.585Z,11.45
2022-08-31T07:06:36.659Z,12.13
2022-08-31T07:09:05.680Z,11.57
2022-08-31T07:11:44.776Z,12.60
2022-08-31T07:14:14.625Z,11.32
2022-08-31T07:16:41.895Z,10.15
2022-08-31T07:19:09.369Z,11.38
2022-08-31T07:21:41.783Z,10.88
2022-08-31T07:24:10.229Z,8.23
2022-08-31T07:26:42.547Z,9.70
2022-08-31T07:29:11.330Z,11.73
2022-08-31T07:31:48.580Z,7.78
2022-08-31T07:34:19.254Z,11.32
2022-08-31T07:37:06.107Z,11.13
2022-08-31T07:39:52.238Z,11.10
2022-08-31T07:42:24.766Z,12.18
2022-08-31T07:44:54.348Z,26.02
2022-08-31T07:47:25.413Z,14.25
2022-08-31T07:49:53.609Z,13.27
2022-08-31T07:52:29.867Z,11.32
2022-08-31T07:55:07.810Z,9.27
2022-08-31T07:57:37.885Z,17.90
2022-08-31T08:00:08.765Z,11.80
2022-08-31T08:02:40.094Z,9.02
2022-08-31T08:05:21.181Z,9.70
2022-08-31T08:07:55.775Z,9.30
2022-08-31T08:10:24.258Z,11.00
2022-08-31T08:13:04.864Z,9.55
2022-08-31T08:15:35.533Z,10.52
2022-08-31T08:18:04.280Z,9.68
2022-08-31T08:20:35.253Z,11.07
2022-08-31T08:25:43.218Z,8.57
2022-08-31T08:28:38.190Z,11.57
2022-08-31T08:31:05.200Z,9.57
2022-08-31T08:33:34.399Z,13.85
2022-08-31T08:36:04.788Z,11.95
2022-08-31T08:38:32.022Z,11.27
2022-08-31T08:41:00.959Z,19.25
2022-08-31T08:43:37.577Z,13.30
2022-08-31T08:46:31.285Z,9.00
2022-08-31T08:48:59.440Z,9.93
2022-08-31T08:51:38.148Z,8.70
2022-08-31T08:54:11.133Z,12.98
2022-08-31T08:56:42.186Z,8.60
2022-08-31T08:59:15.850Z,11.77
2022-08-31T09:01:48.840Z,10.95
2022-08-31T09:04:39.863Z,8.75
2022-08-31T09:07:27.225Z,8.65
2022-08-31T09:10:29.809Z,8.02
2022-08-31T09:13:21.820Z,7.55
2022-08-31T09:15:48.599Z,7.18
2022-08-31T09:18:39.542Z,9.25
2022-08-31T09:21:22.470Z,7.78
2022-08-31T09:24:02.212Z,12.38
2022-08-31T09:26:46.055Z,8.45
2022-08-31T09:29:24.781Z,10.70
2022-08-31T09:32:07.044Z,10.35
2022-08-31T09:34:41.224Z,11.80
2022-08-31T09:37:11.744Z,9.38
2022-08-31T09:39:38.523Z,10.98
2022-08-31T09:42:33.837Z,10.20
2022-08-31T09:45:19.623Z,10.48
2022-08-31T09:47:56.134Z,6.45
2022-08-31T09:50:28.416Z,9.45
2022-08-31T09:53:35.094Z,10.20
2022-08-31T09:56:19.143Z,7.40
2022-08-31T09:59:01.609Z,6.93
2022-08-31T10:01:45.752Z,8.80
2022-08-31T10:07:16.204Z,12.35
2022-08-31T10:09:49.851Z,5.63
2022-08-31T10:12:49.191Z,10.32
2022-08-31T10:15:32.096Z,6.38
2022-08-31T10:18:14.090Z,11.13
2022-08-31T10:21:07.876Z,8.75
2022-08-31T10:26:17.967Z,6.55
2022-08-31T10:28:55.786Z,7.10
2022-08-31T10:31:36.911Z,9.80
2022-08-31T10:34:32.893Z,7.38
2022-08-31T10:37:10.043Z,6.25
2022-08-31T10:39:44.887Z,9.40
2022-08-31T10:42:18.486Z,10.70
2022-08-31T10:45:00.576Z,8.77
2022-08-31T10:47:33.831Z,7.32
2022-08-31T10:52:34.911Z,12.48
2022-08-31T10:55:13.222Z,12.40
2022-08-31T10:57:53.107Z,8.15
2022-08-31T11:00:48.962Z,8.70
2022-08-31T11:03:28.511Z,6.57
2022-08-31T11:06:00.645Z,10.68
2022-08-31T11:08:57.627Z,8.80
2022-08-31T11:12:07.331Z,10.63
2022-08-31T11:15:11.568Z,8.70
2022-08-31T11:18:21.530Z,6.85
2022-08-31T11:21:22.294Z,11.75
2022-08-31T11:23:49.080Z,7.55
2022-08-31T11:26:34.139Z,11.27
2022-08-31T11:29:42.196Z,10.00
2022-08-31T11:32:21.593Z,8.48
2022-08-31T11:34:54.931Z,9.13
2022-08-31T11:37:52.917Z,11.40
2022-08-31T11:40:41.940Z,9.13
2022-08-31T11:43:14.112Z,9.02
2022-08-31T11:45:42.395Z,8.43
2022-08-31T11:48:49.429Z,7.70
2022-08-31T11:51:45.206Z,7.90
2022-08-31T11:54:38.097Z,9.93
2022-08-31T11:57:06.447Z,8.40
2022-08-31T11:59:35.551Z,6.93
2022-08-31T12:02:20.972Z,9.88
2022-08-31T12:04:57.615Z,10.10
2022-08-31T12:07:34.697Z,11.93
2022-08-31T12:10:23.037Z,7.30
2022-08-31T12:12:59.008Z,8.80
2022-08-31T12:15:58.810Z,13.02
2022-08-31T12:18:39.402Z,10.50
2022-08-31T12:22:02.762Z,7.88
2022-08-31T12:24:55.237Z,7.70
2022-08-31T12:27:44.171Z,11.55
2022-08-31T12:30:19.958Z,8.50
2022-08-31T12:32:58.159Z,10.05
2022-08-31T12:35:31.692Z,9.98
2022-08-31T12:38:04.562Z,6.20
2022-08-31T12:40:41.390Z,8.63
2022-08-31T12:43:17.410Z,7.90
2022-08-31T12:46:22.370Z,6.97
2022-08-31T12:49:24.035Z,7.45
2022-08-31T12:52:15.599Z,7.28
2022-08-31T12:54:56.178Z,7.43
2022-08-31T12:57:32.195Z,8.90
2022-08-31T13:00:13.370Z,8.93
2022-08-31T13:02:44.347Z,7.72
2022-08-31T13:05:58.361Z,11.25
2022-08-31T13:08:26.290Z,9.05
2022-08-31T13:10:53.391Z,5.78
2022-08-31T13:13:25.233Z,11.68
2022-08-31T13:15:58.070Z,7.18
2022-08-31T13:18:27.532Z,7.45
2022-08-31T13:20:56.281Z,8.25
2022-08-31T13:23:38.355Z,8.18
2022-08-31T13:26:25.480Z,5.65
2022-08-31T13:29:00.824Z,8.52
2022-08-31T13:31:48.663Z,9.50
2022-08-31T13:34:15.516Z,7.30
2022-08-31T13:36:52.029Z,7.70
2022-08-31T13:39:23.328Z,7.85
2022-08-31T13:42:06.106Z,9.43
2022-08-31T13:44:39.351Z,6.50
2022-08-31T13:47:28.010Z,8.82
2022-08-31T13:50:01.231Z,5.55
2022-08-31T13:52:30.440Z,6.25
2022-08-31T13:55:03.430Z,6.47
2022-08-31T13:57:35.005Z,7.17
2022-08-31T14:00:23.769Z,7.00
2022-08-31T14:02:50.843Z,5.90
2022-08-31T14:05:33.423Z,8.50
2022-08-31T14:08:03.849Z,5.35
2022-08-31T14:10:44.089Z,6.18
2022-08-31T14:13:14.299Z,6.60
2022-08-31T14:15:58.210Z,7.10
2022-08-31T14:18:35.081Z,4.80
2022-08-31T14:21:20.432Z,6.68
2022-08-31T14:24:02.446Z,4.93
2022-08-31T14:26:35.265Z,3.97
2022-08-31T14:29:10.518Z,7.72
2022-08-31T14:31:52.493Z,8.80
2022-08-31T14:34:32.248Z,6.35
2022-08-31T14:37:08.663Z,5.78
2022-08-31T14:39:36.204Z,4.90
2022-08-31T14:42:19.185Z,5.20
2022-08-31T14:44:56.793Z,7.35
2022-08-31T14:47:28.281Z,5.28
2022-08-31T14:50:05.803Z,5.00
2022-08-31T14:52:39.002Z,5.35
2022-08-31T14:55:11.409Z,7.47
2022-08-31T14:57:45.858Z,5.63
2022-08-31T15:00:21.972Z,4.88
2022-08-31T15:02:49.798Z,4.88
2022-08-31T15:05:18.149Z,5.13
2022-08-31T15:07:47.034Z,7.93
2022-08-31T15:10:13.940Z,5.57
2022-08-31T15:12:40.803Z,4.47
2022-08-31T15:15:09.294Z,4.55
2022-08-31T15:17:36.226Z,4.07
2022-08-31T15:20:06.039Z,7.63
2022-08-31T15:22:35.171Z,4.75
2022-08-31T15:25:02.383Z,5.28
2022-08-31T15:27:31.444Z,7.45
2022-08-31T15:30:08.157Z,5.50
2022-08-31T15:32:39.815Z,7.35
2022-08-31T15:35:07.498Z,7.63
2022-08-31T15:37:34.292Z,6.32
2022-08-31T15:40:04.028Z,8.00
2022-08-31T15:42:31.708Z,4.75
2022-08-31T15:44:58.936Z,8.65
2022-08-31T15:47:52.654Z,6.45
2022-08-31T15:50:23.492Z,4.68
2022-08-31T15:52:51.959Z,5.45
2022-08-31T15:55:23.690Z,5.35
2022-08-31T15:57:54.433Z,6.18
2022-08-31T16:00:26.197Z,7.45
2022-08-31T16:02:57.716Z,5.05
2022-08-31T16:05:30.655Z,6.40
2022-08-31T16:07:58.261Z,6.97
2022-08-31T16:10:27.833Z,4.45
2022-08-31T16:12:54.685Z,5.85
2022-08-31T16:15:24.660Z,5.60
2022-08-31T16:17:52.108Z,5.90
2022-08-31T16:20:19.263Z,6.78
2022-08-31T16:22:46.211Z,6.43
2022-08-31T16:25:14.345Z,6.45
2022-08-31T16:27:43.556Z,5.57
2022-08-31T16:30:13.163Z,4.63
2022-08-31T16:32:40.174Z,5.00
2022-08-31T16:35:07.661Z,6.63
2022-08-31T16:37:34.573Z,10.35
2022-08-31T16:40:01.626Z,7.15
2022-08-31T16:42:28.655Z,5.45
2022-08-31T16:44:59.748Z,9.70
2022-08-31T16:47:29.383Z,6.30
2022-08-31T16:49:56.934Z,4.75
2022-08-31T16:52:26.807Z,4.90
2022-08-31T16:54:57.060Z,7.38
2022-08-31T16:57:27.421Z,6.70
2022-08-31T16:59:58.122Z,9.10
2022-08-31T17:02:26.683Z,5.50
2022-08-31T17:04:54.407Z,5.65
2022-08-31T17:07:23.306Z,4.68
2022-08-31T17:09:50.600Z,5.47
2022-08-31T17:12:21.920Z,4.97
2022-08-31T17:14:52.534Z,7.65
2022-08-31T17:17:23.564Z,5.32
2022-08-31T17:19:52.317Z,5.35
2022-08-31T17:22:30.092Z,9.20
2022-08-31T17:25:03.305Z,4.63
2022-08-31T17:27:33.259Z,5.85
2022-08-31T17:30:04.082Z,6.65
2022-08-31T17:32:30.982Z,6.93
2022-08-31T17:34:58.060Z,6.45
2022-08-31T17:37:32.779Z,8.48
2022-08-31T17:39:59.999Z,4.97
2022-08-31T17:42:28.184Z,7.63
2022-08-31T17:44:56.963Z,7.30
2022-08-31T17:47:25.406Z,6.85
2022-08-31T17:49:52.912Z,5.65
2022-08-31T17:52:21.893Z,6.03
2022-08-31T17:54:51.371Z,4.93
2022-08-31T17:57:25.208Z,4.10
2022-08-31T17:59:55.011Z,3.95
2022-08-31T18:02:34.886Z,4.72
2022-08-31T18:05:03.400Z,5.60
2022-08-31T18:07:36.742Z,4.75
2022-08-31T18:10:05.156Z,6.07
2022-08-31T18:12:32.339Z,7.43
2022-08-31T18:15:02.285Z,6.47
2022-08-31T18:17:30.548Z,5.97
2022-08-31T18:20:00.189Z,3.97
2022-08-31T18:22:36.299Z,4.40
2022-08-31T18:27:50.388Z,5.18
2022-08-31T18:30:18.483Z,4.97
2022-08-31T18:32:46.773Z,4.80
2022-08-31T18:35:16.647Z,3.95
2022-08-31T18:37:43.668Z,9.63
2022-08-31T18:40:29.552Z,9.43
2022-08-31T18:43:15.858Z,5.43
2022-08-31T18:45:48.335Z,3.63
2022-08-31T18:48:25.754Z,5.72
2022-08-31T18:50:53.955Z,4.90
2022-08-31T18:53:26.839Z,5.38
2022-08-31T18:55:55.668Z,5.78
2022-08-31T18:58:23.614Z,5.20
2022-08-31T19:00:59.276Z,8.55
2022-08-31T19:03:28.260Z,7.80
2022-08-31T19:05:56.815Z,6.18
2022-08-31T19:08:24.601Z,5.00
2022-08-31T19:10:53.575Z,4.97
2022-08-31T19:13:21.541Z,5.53
2022-08-31T19:15:49.073Z,5.63
2022-08-31T19:18:16.184Z,7.72
2022-08-31T19:20:43.101Z,7.00
2022-08-31T19:23:10.129Z,6.38
2022-08-31T19:25:45.142Z,8.63
2022-08-31T19:28:12.479Z,11.60
2022-08-31T19:30:44.603Z,15.52
2022-08-31T19:33:12.481Z,10.60
2022-08-31T19:35:39.637Z,7.03
2022-08-31T19:38:06.883Z,7.20
2022-08-31T19:40:41.065Z,6.65
2022-08-31T19:45:55.571Z,8.68
2022-08-31T19:48:23.909Z,8.77
2022-08-31T19:50:52.490Z,8.23
2022-08-31T19:53:21.429Z,8.57
2022-08-31T19:55:51.494Z,5.82
2022-08-31T19:58:22.609Z,8.05
2022-08-31T20:00:50.270Z,10.25
2022-08-31T20:03:19.568Z,7.18
2022-08-31T20:05:47.407Z,3.92
2022-08-31T20:08:14.485Z,5.00
2022-08-31T20:10:46.253Z,6.78
2022-08-31T20:13:14.228Z,6.90
2022-08-31T20:15:43.987Z,6.63
2022-08-31T20:18:14.481Z,5.63
2022-08-31T20:20:45.378Z,4.93
2022-08-31T20:23:16.870Z,4.75
2022-08-31T20:25:46.239Z,8.77
2022-08-31T20:28:13.734Z,4.72
2022-08-31T20:30:42.428Z,6.03
2022-08-31T20:33:11.399Z,5.57
2022-08-31T20:35:47.881Z,5.93
2022-08-31T20:38:19.124Z,6.88
2022-08-31T20:40:52.402Z,6.15
2022-08-31T20:43:21.251Z,5.25
2022-08-31T20:45:48.910Z,6.15
2022-08-31T20:48:36.020Z,7.88
2022-08-31T20:51:16.419Z,4.53
2022-08-31T20:53:44.552Z,5.18
2022-08-31T20:56:17.551Z,6.63
2022-08-31T20:58:45.716Z,4.22
2022-08-31T21:01:14.248Z,5.68
2022-08-31T21:03:41.887Z,4.68
2022-08-31T21:06:11.830Z,4.20
2022-08-31T21:08:42.427Z,6.57
2022-08-31T21:11:14.326Z,6.03
2022-08-31T21:13:42.893Z,3.92
2022-08-31T21:16:10.147Z,3.70
2022-08-31T21:18:37.914Z,3.67
2022-08-31T21:21:08.271Z,6.18
2022-08-31T21:23:37.360Z,3.88
2022-08-31T21:26:08.732Z,4.55
2022-08-31T21:28:39.550Z,4.20
2022-08-31T21:31:27.751Z,6.45
2022-08-31T21:33:59.493Z,5.30
2022-08-31T21:36:27.326Z,3.45
2022-08-31T21:38:56.552Z,5.13
2022-08-31T21:41:26.714Z,4.07
2022-08-31T21:43:55.309Z,3.20
2022-08-31T21:46:25.463Z,3.47
2022-08-31T21:48:54.987Z,3.35
2022-08-31T21:51:26.585Z,3.08
2022-08-31T21:53:57.230Z,3.13
2022-08-31T21:56:26.269Z,2.95
2022-08-31T21:58:53.162Z,7.20
2022-08-31T22:01:20.232Z,3.28
2022-08-31T22:03:54.320Z,3.40
2022-08-31T22:06:31.229Z,3.17
2022-08-31T22:09:00.953Z,3.10
2022-08-31T22:11:30.855Z,3.70
2022-08-31T22:13:59.142Z,3.30
2022-08-31T22:16:26.429Z,2.70
2022-08-31T22:19:01.199Z,5.10
2022-08-31T22:21:36.743Z,3.67
2022-08-31T22:24:08.176Z,3.40
2022-08-31T22:26:41.417Z,3.65
2022-08-31T22:29:11.538Z,3.37
2022-08-31T22:31:39.739Z,3.58
2022-08-31T22:34:09.208Z,3.45
2022-08-31T22:36:37.205Z,4.70
2022-08-31T22:39:10.508Z,3.35
2022-08-31T22:41:38.695Z,4.40
2022-08-31T22:44:07.102Z,3.53
2022-08-31T22:46:34.799Z,3.70
2022-08-31T22:49:02.543Z,3.47
2022-08-31T22:51:29.717Z,5.18
2022-08-31T22:53:56.584Z,4.25
2022-08-31T22:56:29.097Z,3.40
2022-08-31T22:58:58.591Z,9.13
2022-08-31T23:01:29.049Z,3.90
2022-08-31T23:03:58.100Z,3.33
2022-08-31T23:06:27.284Z,4.32
2022-08-31T23:08:56.213Z,3.60
2022-08-31T23:11:24.932Z,6.22
2022-08-31T23:13:57.535Z,4.60
2022-08-31T23:16:37.203Z,3.45
2022-08-31T23:19:12.412Z,4.18
2022-08-31T23:21:52.606Z,5.13
2022-08-31T23:24:23.670Z,4.35
2022-08-31T23:26:53.123Z,3.53
2022-08-31T23:29:21.760Z,5.47
2022-08-31T23:31:48.811Z,5.05
2022-08-31T23:34:16.782Z,3.83
2022-08-31T23:36:48.823Z,5.55
2022-08-31T23:39:18.528Z,4.50
2022-08-31T23:41:45.916Z,3.90
2022-08-31T23:44:13.656Z,4.82
2022-08-31T23:46:43.295Z,6.43
2022-08-31T23:49:13.300Z,4.72
2022-08-31T23:51:40.153Z,4.32
2022-08-31T23:54:08.275Z,4.13
2022-08-31T23:56:38.444Z,4.20
2022-08-31T23:59:09.049Z,8.48
